Aegina — SW3394 — position and weather

sailwx.info

Track history (hours):
 
Tides and Currents Weather Stations Pressure Air Temp Water Temp Dewpoint Dewpoint Depression Visibility Wind Speed Wind Dir Waves Ship Positions

Aegina

Last reported at 2017-Nov-28 13:57 UTC. Time now 2017-Dec-11 00:13 UTC.
Position N 38°02' E 023°35'.
Warning: this ship's position is 12 days out of date.

Length 51 m; draft 3.3 m.

Type: Tanker. MMSI: 237096900.

Date/timePositionNaut miles runAvg speedWind from/ knotsBaromVisibWave heightAir tempDewpointWater temp
2017-Nov-28 13:57N 38°02' E 023°35'3 6.9
2017-Nov-28 13:30N 37°59' E 023°33'3 6.5
2017-Nov-28 13:00N 37°56' E 023°35'4 8.0
2017-Nov-28 12:30N 37°52' E 023°33'1 2.1
2017-Nov-28 12:00N 37°52' E 023°32'0 0.0
2017-Nov-28 11:30N 37°52' E 023°32'0 0.0
2017-Nov-28 11:00N 37°52' E 023°32'1 1.9
2017-Nov-28 10:30N 37°52' E 023°32'0 0.1
2017-Nov-28 10:00N 37°52' E 023°32'0 0.0
2017-Nov-28 09:30N 37°52' E 023°32'1 1.5
2017-Nov-28 09:00N 37°53' E 023°32'2 4.0
2017-Nov-28 08:30N 37°55' E 023°34'0 0.1
2017-Nov-28 08:00N 37°55' E 023°34'0 0.1
2017-Nov-28 07:30N 37°55' E 023°34'2 4.7
2017-Nov-28 07:00N 37°57' E 023°34'3 6.3
2017-Nov-28 06:30N 38°00' E 023°33'2 0.0
2017-Nov-26 10:57N 38°02' E 023°35'3 8.0
2017-Nov-26 10:31N 37°58' E 023°33'3 6.6
2017-Nov-26 10:00N 37°55' E 023°34'4 8.3
2017-Nov-26 09:30N 37°52' E 023°32'0 0.3
2017-Nov-26 09:00N 37°51' E 023°32'0 0.1
2017-Nov-26 08:30N 37°51' E 023°32'0 0.1
2017-Nov-26 08:00N 37°51' E 023°32'1 1.4
2017-Nov-26 07:30N 37°52' E 023°32'3 6.3
2017-Nov-26 07:00N 37°55' E 023°34'0 0.0
2017-Nov-26 06:30N 37°55' E 023°34'2 4.9
2017-Nov-26 06:00N 37°57' E 023°34'3 6.5
2017-Nov-26 05:30N 38°00' E 023°33'2 0.1
2017-Nov-24 13:56N 38°02' E 023°35'4 8.2
2017-Nov-24 13:30N 37°59' E 023°33'3 7.0
2017-Nov-24 13:00N 37°56' E 023°35'3 6.4
2017-Nov-24 12:30N 37°53' E 023°32'0 0.0
2017-Nov-24 12:00N 37°53' E 023°32'0 0.0
2017-Nov-24 11:30N 37°53' E 023°32'0 0.0
2017-Nov-24 11:00N 37°53' E 023°32'2 4.8
2017-Nov-24 10:30N 37°55' E 023°34'3 5.1
2017-Nov-24 10:00N 37°58' E 023°34'0 0.0
2017-Nov-24 09:30N 37°58' E 023°34'0 0.0
2017-Nov-24 09:00N 37°58' E 023°34'0 0.0
2017-Nov-24 08:30N 37°58' E 023°34'0 0.0
2017-Nov-24 08:00N 37°58' E 023°34'0 0.0
2017-Nov-24 07:30N 37°58' E 023°34'0 0.0
2017-Nov-24 07:00N 37°58' E 023°34'0 0.0
2017-Nov-24 06:30N 37°58' E 023°34'0 0.3
2017-Nov-24 06:00N 37°57' E 023°34'3 5.9
2017-Nov-24 05:30N 38°00' E 023°33'2 0.2
2017-Nov-23 16:02N 38°02' E 023°35'0 8.7
2017-Nov-23 16:00N 38°02' E 023°35'4 8.6
2017-Nov-23 15:30N 37°58' E 023°33'3 5.6
2017-Nov-23 15:00N 37°55' E 023°33'4 8.9
2017-Nov-23 14:30N 37°52' E 023°29'4 8.7
2017-Nov-23 14:00N 37°48' E 023°26'4 8.1
2017-Nov-23 13:30N 37°44' E 023°25'3 5.6
2017-Nov-23 13:00N 37°41' E 023°27'0 0.0
2017-Nov-23 12:30N 37°41' E 023°27'0 0.0
2017-Nov-23 11:59N 37°41' E 023°27'0 0.0
2017-Nov-23 11:26N 37°41' E 023°27'3 5.7
2017-Nov-23 10:59N 37°43' E 023°25'4 7.6
2017-Nov-23 10:30N 37°47' E 023°26'4 8.0
2017-Nov-23 10:00N 37°50' E 023°29'3 6.7
2017-Nov-23 09:30N 37°53' E 023°31'0 0.1
2017-Nov-23 09:00N 37°53' E 023°31'0 0.0
2017-Nov-23 08:30N 37°53' E 023°31'0 0.1
2017-Nov-23 08:00N 37°53' E 023°31'0 0.1
2017-Nov-23 07:30N 37°53' E 023°31'0 0.0
2017-Nov-23 07:00N 37°53' E 023°31'2 4.4
2017-Nov-23 06:30N 37°55' E 023°33'3 5.4
2017-Nov-23 06:00N 37°57' E 023°34'3 6.4
2017-Nov-23 05:30N 38°00' E 023°33'  
Track history (hours):
 
Tides and Currents Weather Stations Pressure Air Temp Water Temp Dewpoint Dewpoint Depression Visibility Wind Speed Wind Dir Waves Ship Positions

Aegina

Last reported at 2017-Nov-28 13:57 UTC. Time now 2017-Dec-11 00:13 UTC.
Position N 38°02' E 023°35'.
Warning: this ship's position is 12 days out of date.

Length 51 m; draft 3.3 m.

Type: Tanker. MMSI: 237096900.

Date/timePositionNaut miles runAvg speedWind from/ knotsBaromVisibWave heightAir tempDewpointWater temp
2017-Nov-28 13:57N 38°02' E 023°35'3 6.9
2017-Nov-28 13:30N 37°59' E 023°33'3 6.5
2017-Nov-28 13:00N 37°56' E 023°35'4 8.0
2017-Nov-28 12:30N 37°52' E 023°33'1 2.1
2017-Nov-28 12:00N 37°52' E 023°32'0 0.0
2017-Nov-28 11:30N 37°52' E 023°32'0 0.0
2017-Nov-28 11:00N 37°52' E 023°32'1 1.9
2017-Nov-28 10:30N 37°52' E 023°32'0 0.1
2017-Nov-28 10:00N 37°52' E 023°32'0 0.0
2017-Nov-28 09:30N 37°52' E 023°32'1 1.5
2017-Nov-28 09:00N 37°53' E 023°32'2 4.0
2017-Nov-28 08:30N 37°55' E 023°34'0 0.1
2017-Nov-28 08:00N 37°55' E 023°34'0 0.1
2017-Nov-28 07:30N 37°55' E 023°34'2 4.7
2017-Nov-28 07:00N 37°57' E 023°34'3 6.3
2017-Nov-28 06:30N 38°00' E 023°33'2 0.0
2017-Nov-26 10:57N 38°02' E 023°35'3 8.0
2017-Nov-26 10:31N 37°58' E 023°33'3 6.6
2017-Nov-26 10:00N 37°55' E 023°34'4 8.3
2017-Nov-26 09:30N 37°52' E 023°32'0 0.3
2017-Nov-26 09:00N 37°51' E 023°32'0 0.1
2017-Nov-26 08:30N 37°51' E 023°32'0 0.1
2017-Nov-26 08:00N 37°51' E 023°32'1 1.4
2017-Nov-26 07:30N 37°52' E 023°32'3 6.3
2017-Nov-26 07:00N 37°55' E 023°34'0 0.0
2017-Nov-26 06:30N 37°55' E 023°34'2 4.9
2017-Nov-26 06:00N 37°57' E 023°34'3 6.5
2017-Nov-26 05:30N 38°00' E 023°33'2 0.1
2017-Nov-24 13:56N 38°02' E 023°35'4 8.2
2017-Nov-24 13:30N 37°59' E 023°33'3 7.0
2017-Nov-24 13:00N 37°56' E 023°35'3 6.4
2017-Nov-24 12:30N 37°53' E 023°32'0 0.0
2017-Nov-24 12:00N 37°53' E 023°32'0 0.0
2017-Nov-24 11:30N 37°53' E 023°32'0 0.0
2017-Nov-24 11:00N 37°53' E 023°32'2 4.8
2017-Nov-24 10:30N 37°55' E 023°34'3 5.1
2017-Nov-24 10:00N 37°58' E 023°34'0 0.0
2017-Nov-24 09:30N 37°58' E 023°34'0 0.0
2017-Nov-24 09:00N 37°58' E 023°34'0 0.0
2017-Nov-24 08:30N 37°58' E 023°34'0 0.0
2017-Nov-24 08:00N 37°58' E 023°34'0 0.0
2017-Nov-24 07:30N 37°58' E 023°34'0 0.0
2017-Nov-24 07:00N 37°58' E 023°34'0 0.0
2017-Nov-24 06:30N 37°58' E 023°34'0 0.3
2017-Nov-24 06:00N 37°57' E 023°34'3 5.9
2017-Nov-24 05:30N 38°00' E 023°33'2 0.2
2017-Nov-23 16:02N 38°02' E 023°35'0 8.7
2017-Nov-23 16:00N 38°02' E 023°35'4 8.6
2017-Nov-23 15:30N 37°58' E 023°33'3 5.6
2017-Nov-23 15:00N 37°55' E 023°33'4 8.9
2017-Nov-23 14:30N 37°52' E 023°29'4 8.7
2017-Nov-23 14:00N 37°48' E 023°26'4 8.1
2017-Nov-23 13:30N 37°44' E 023°25'3 5.6
2017-Nov-23 13:00N 37°41' E 023°27'0 0.0
2017-Nov-23 12:30N 37°41' E 023°27'0 0.0
2017-Nov-23 11:59N 37°41' E 023°27'0 0.0
2017-Nov-23 11:26N 37°41' E 023°27'3 5.7
2017-Nov-23 10:59N 37°43' E 023°25'4 7.6
2017-Nov-23 10:30N 37°47' E 023°26'4 8.0
2017-Nov-23 10:00N 37°50' E 023°29'3 6.7
2017-Nov-23 09:30N 37°53' E 023°31'0 0.1
2017-Nov-23 09:00N 37°53' E 023°31'0 0.0
2017-Nov-23 08:30N 37°53' E 023°31'0 0.1
2017-Nov-23 08:00N 37°53' E 023°31'0 0.1
2017-Nov-23 07:30N 37°53' E 023°31'0 0.0
2017-Nov-23 07:00N 37°53' E 023°31'2 4.4
2017-Nov-23 06:30N 37°55' E 023°33'3 5.4
2017-Nov-23 06:00N 37°57' E 023°34'3 6.4
2017-Nov-23 05:30N 38°00' E 023°33'  

Dump ship's entire track history